createdAt,value
2023-02-11T00:00:42.169Z,18.77
2023-02-11T00:03:09.293Z,19.60
2023-02-11T00:05:35.988Z,20.60
2023-02-11T00:08:02.607Z,19.58
2023-02-11T00:10:29.270Z,19.13
2023-02-11T00:12:56.162Z,19.35
2023-02-11T00:15:22.884Z,19.13
2023-02-11T00:17:49.582Z,19.77
2023-02-11T00:20:16.441Z,19.75
2023-02-11T00:22:43.582Z,19.35
2023-02-11T00:25:10.340Z,20.25
2023-02-11T00:27:37.671Z,19.38
2023-02-11T00:30:05.377Z,20.13
2023-02-11T00:32:32.368Z,20.30
2023-02-11T00:34:59.196Z,22.90
2023-02-11T00:37:26.055Z,19.98
2023-02-11T00:39:52.715Z,19.90
2023-02-11T00:42:19.343Z,21.13
2023-02-11T00:44:46.055Z,20.10
2023-02-11T00:47:16.402Z,19.95
2023-02-11T00:49:44.003Z,21.40
2023-02-11T00:52:10.757Z,19.48
2023-02-11T00:54:37.401Z,18.67
2023-02-11T00:57:04.110Z,19.35
2023-02-11T00:59:30.834Z,19.58
2023-02-11T01:01:57.528Z,19.95
2023-02-11T01:04:24.277Z,19.08
2023-02-11T01:06:52.402Z,19.55
2023-02-11T01:09:21.052Z,19.20
2023-02-11T01:11:47.887Z,18.17
2023-02-11T01:14:14.689Z,19.40
2023-02-11T01:16:41.401Z,18.27
2023-02-11T01:19:08.676Z,17.73
2023-02-11T01:21:35.469Z,19.17
2023-02-11T01:24:02.117Z,18.63
2023-02-11T01:26:28.759Z,18.20
2023-02-11T01:28:57.487Z,16.83
2023-02-11T01:31:27.719Z,19.60
2023-02-11T01:33:54.392Z,17.35
2023-02-11T01:36:21.015Z,17.45
2023-02-11T01:38:47.735Z,18.85
2023-02-11T01:41:15.078Z,17.63
2023-02-11T01:43:48.085Z,17.90
2023-02-11T01:46:23.423Z,18.98
2023-02-11T01:49:16.863Z,18.70
2023-02-11T01:55:14.004Z,16.08
2023-02-11T01:57:45.180Z,16.10
2023-02-11T02:00:21.985Z,16.60
2023-02-11T02:03:06.207Z,15.98
2023-02-11T02:06:00.484Z,16.15
2023-02-11T02:08:38.465Z,15.68
2023-02-11T02:11:05.290Z,16.27
2023-02-11T02:13:34.547Z,16.48
2023-02-11T02:16:09.853Z,15.75
2023-02-11T02:19:10.225Z,15.65
2023-02-11T02:21:51.717Z,14.75
2023-02-11T02:24:43.146Z,14.68
2023-02-11T02:27:43.306Z,15.02
2023-02-11T02:30:24.549Z,15.00
2023-02-11T02:33:23.420Z,14.82
2023-02-11T02:36:12.623Z,15.15
2023-02-11T02:39:00.960Z,15.18
2023-02-11T02:41:32.324Z,15.70
2023-02-11T02:43:59.231Z,14.80
2023-02-11T02:46:28.749Z,14.70
2023-02-11T02:48:56.563Z,15.00
2023-02-11T02:51:41.881Z,15.13
2023-02-11T02:54:55.951Z,14.13
2023-02-11T02:57:30.852Z,14.80
2023-02-11T03:00:13.106Z,16.00
2023-02-11T03:02:46.033Z,14.95
2023-02-11T03:05:22.972Z,14.88
2023-02-11T03:08:23.422Z,14.75
2023-02-11T03:10:53.280Z,15.23
2023-02-11T03:13:24.582Z,15.20
2023-02-11T03:15:55.881Z,16.65
2023-02-11T03:18:25.943Z,16.02
2023-02-11T03:20:54.388Z,15.70
2023-02-11T03:23:30.686Z,16.88
2023-02-11T03:26:28.048Z,15.77
2023-02-11T03:29:18.019Z,15.35
2023-02-11T03:32:19.324Z,15.85
2023-02-11T03:35:22.674Z,16.33
2023-02-11T03:38:04.222Z,14.70
2023-02-11T03:40:36.023Z,15.20
2023-02-11T03:43:17.493Z,14.93
2023-02-11T03:45:47.202Z,16.48
2023-02-11T03:48:20.190Z,16.88
2023-02-11T03:50:48.542Z,15.70
2023-02-11T03:53:16.779Z,16.10
2023-02-11T03:55:45.629Z,15.93
2023-02-11T03:58:12.436Z,16.92
2023-02-11T04:00:41.812Z,16.83
2023-02-11T04:03:09.885Z,17.40
2023-02-11T04:05:37.545Z,18.20
2023-02-11T04:08:04.322Z,18.45
2023-02-11T04:10:31.034Z,18.80
2023-02-11T04:12:57.860Z,18.98
2023-02-11T04:15:24.667Z,18.95
2023-02-11T04:17:51.845Z,18.65
2023-02-11T04:20:18.896Z,18.73
2023-02-11T04:22:45.562Z,20.23
2023-02-11T04:25:12.400Z,17.95
2023-02-11T04:27:39.013Z,17.90
2023-02-11T04:30:07.076Z,17.77
2023-02-11T04:32:33.674Z,17.50
2023-02-11T04:35:00.415Z,17.33
2023-02-11T04:37:27.128Z,17.65
2023-02-11T04:39:53.764Z,18.40
2023-02-11T04:42:20.402Z,18.13
2023-02-11T04:44:47.071Z,18.25
2023-02-11T04:47:15.266Z,16.45
2023-02-11T04:49:42.399Z,16.38
2023-02-11T04:52:09.529Z,16.40
2023-02-11T04:54:36.294Z,15.27
2023-02-11T04:57:03.352Z,16.02
2023-02-11T04:59:30.186Z,15.20
2023-02-11T05:01:56.815Z,16.42
2023-02-11T05:04:23.804Z,15.57
2023-02-11T05:06:50.561Z,15.70
2023-02-11T05:09:17.663Z,16.67
2023-02-11T05:11:44.399Z,14.57
2023-02-11T05:14:11.119Z,15.95
2023-02-11T05:16:37.925Z,15.75
2023-02-11T05:19:04.775Z,15.75
2023-02-11T05:21:31.406Z,16.40
2023-02-11T05:23:58.132Z,14.50
2023-02-11T05:26:25.227Z,14.52
2023-02-11T05:28:51.831Z,15.48
2023-02-11T05:31:18.549Z,17.33
2023-02-11T05:33:45.347Z,15.27
2023-02-11T05:36:13.345Z,15.85
2023-02-11T05:38:40.817Z,15.20
2023-02-11T05:41:07.502Z,16.05
2023-02-11T05:43:35.586Z,16.13
2023-02-11T05:46:05.597Z,16.38
2023-02-11T05:48:32.525Z,15.43
2023-02-11T05:50:59.291Z,15.60
2023-02-11T05:53:26.004Z,16.58
2023-02-11T05:55:53.117Z,16.38
2023-02-11T05:58:19.816Z,16.05
2023-02-11T06:00:46.539Z,17.60
2023-02-11T06:03:13.181Z,16.63
2023-02-11T06:05:40.186Z,16.73
2023-02-11T06:08:06.872Z,17.35
2023-02-11T06:10:33.603Z,18.45
2023-02-11T06:13:01.961Z,17.92
2023-02-11T06:15:28.762Z,17.33
2023-02-11T06:17:55.652Z,19.02
2023-02-11T06:20:22.421Z,17.58
2023-02-11T06:22:49.095Z,17.27
2023-02-11T06:25:15.827Z,16.65
2023-02-11T06:27:42.491Z,17.70
2023-02-11T06:30:09.924Z,19.02
2023-02-11T06:32:44.351Z,21.15
2023-02-11T06:35:12.850Z,19.02
2023-02-11T06:37:40.612Z,18.40
2023-02-11T06:40:07.847Z,18.23
2023-02-11T06:42:36.016Z,18.50
2023-02-11T06:45:02.919Z,19.60
2023-02-11T06:47:29.546Z,17.95
2023-02-11T06:49:56.157Z,19.10
2023-02-11T06:52:22.848Z,20.90
2023-02-11T06:54:49.457Z,19.80
2023-02-11T06:57:16.096Z,20.17
2023-02-11T06:59:44.255Z,19.90
2023-02-11T07:02:11.028Z,21.75
2023-02-11T07:04:37.924Z,20.17
2023-02-11T07:07:04.550Z,20.35
2023-02-11T07:09:31.178Z,18.98
2023-02-11T07:11:57.802Z,19.20
2023-02-11T07:14:24.519Z,21.30
2023-02-11T07:16:51.320Z,21.25
2023-02-11T07:19:17.976Z,20.10
2023-02-11T07:21:44.619Z,20.88
2023-02-11T07:24:11.649Z,19.15
2023-02-11T07:26:38.443Z,20.13
2023-02-11T07:29:05.204Z,20.63
2023-02-11T07:31:32.961Z,20.45
2023-02-11T07:34:01.596Z,20.33
2023-02-11T07:36:30.182Z,20.80
2023-02-11T07:38:57.156Z,21.88
2023-02-11T07:41:24.977Z,21.20
2023-02-11T07:43:51.996Z,22.23
2023-02-11T07:46:26.871Z,20.63
2023-02-11T07:48:54.691Z,20.98
2023-02-11T07:51:24.233Z,21.58
2023-02-11T07:53:51.927Z,21.45
2023-02-11T07:56:19.539Z,22.85
2023-02-11T07:58:46.454Z,21.42
2023-02-11T08:01:22.499Z,21.48
2023-02-11T08:03:49.302Z,21.42
2023-02-11T08:06:18.058Z,20.35
2023-02-11T08:08:44.980Z,22.13
2023-02-11T08:11:14.648Z,22.45
2023-02-11T08:13:42.281Z,22.52
2023-02-11T08:16:09.873Z,20.90
2023-02-11T08:18:38.689Z,21.63
2023-02-11T08:21:09.947Z,20.73
2023-02-11T08:23:38.195Z,21.75
2023-02-11T08:26:07.343Z,21.73
2023-02-11T08:28:39.003Z,22.05
2023-02-11T08:33:46.476Z,21.98
2023-02-11T08:36:19.426Z,21.25
2023-02-11T08:38:46.481Z,21.35
2023-02-11T08:41:17.111Z,22.73
2023-02-11T08:43:45.378Z,21.00
2023-02-11T08:46:14.282Z,21.13
2023-02-11T08:48:41.805Z,20.65
2023-02-11T08:51:10.627Z,22.70
2023-02-11T08:53:37.594Z,21.63
2023-02-11T08:56:08.071Z,22.65
2023-02-11T08:58:35.239Z,23.70
2023-02-11T09:01:12.777Z,23.23
2023-02-11T09:03:41.702Z,22.60
2023-02-11T09:06:10.283Z,21.58
2023-02-11T09:08:39.144Z,22.30
2023-02-11T09:11:06.831Z,23.48
2023-02-11T09:13:34.216Z,23.70
2023-02-11T09:16:02.929Z,23.88
2023-02-11T09:18:29.929Z,24.48
2023-02-11T09:21:08.467Z,23.92
2023-02-11T09:23:36.711Z,24.25
2023-02-11T09:26:09.363Z,24.83
2023-02-11T09:28:36.493Z,26.27
2023-02-11T09:31:11.855Z,26.38
2023-02-11T09:33:42.084Z,23.98
2023-02-11T09:36:09.125Z,26.20
2023-02-11T09:38:35.774Z,24.67
2023-02-11T09:41:07.496Z,25.35
2023-02-11T09:43:44.426Z,24.88
2023-02-11T09:46:16.381Z,25.40
2023-02-11T09:48:45.577Z,26.35
2023-02-11T09:51:46.295Z,25.95
2023-02-11T09:54:36.081Z,26.42
2023-02-11T09:57:02.872Z,26.48
2023-02-11T09:59:29.549Z,25.88
2023-02-11T10:02:02.236Z,26.05
2023-02-11T10:05:01.576Z,27.20
2023-02-11T10:07:40.607Z,28.08
2023-02-11T10:10:23.511Z,27.05
2023-02-11T10:13:14.343Z,25.83
2023-02-11T10:15:58.799Z,28.60
2023-02-11T10:18:44.225Z,26.77
2023-02-11T10:21:29.123Z,26.83
2023-02-11T10:24:00.757Z,27.50
2023-02-11T10:29:02.075Z,26.42
2023-02-11T10:31:37.419Z,27.63
2023-02-11T10:34:11.365Z,28.00
2023-02-11T10:36:40.919Z,28.35
2023-02-11T10:39:16.672Z,28.23
2023-02-11T10:41:50.478Z,27.08
2023-02-11T10:44:33.807Z,26.63
2023-02-11T10:47:05.543Z,27.98
2023-02-11T10:49:38.228Z,27.80
2023-02-11T10:52:26.127Z,26.80
2023-02-11T10:54:58.877Z,27.35
2023-02-11T10:57:36.034Z,28.67
2023-02-11T11:00:19.952Z,29.42
2023-02-11T11:02:54.309Z,28.88
2023-02-11T11:05:32.279Z,28.45
2023-02-11T11:08:02.974Z,28.10
2023-02-11T11:10:45.722Z,31.42
2023-02-11T11:13:33.096Z,27.92
2023-02-11T11:16:11.877Z,27.80
2023-02-11T11:18:46.773Z,32.00
2023-02-11T11:21:24.890Z,28.25
2023-02-11T11:23:58.076Z,28.45
2023-02-11T11:26:28.690Z,28.52
2023-02-11T11:29:34.263Z,28.90
2023-02-11T11:32:11.388Z,27.40
2023-02-11T11:34:43.435Z,27.73
2023-02-11T11:37:23.157Z,27.65
2023-02-11T11:40:09.508Z,28.27
2023-02-11T11:42:38.105Z,28.33
2023-02-11T11:45:31.045Z,30.40
2023-02-11T11:48:13.333Z,28.58
2023-02-11T11:50:52.369Z,28.23
2023-02-11T11:53:34.256Z,29.13
2023-02-11T11:58:33.171Z,28.13
2023-02-11T12:01:37.577Z,27.42
2023-02-11T12:04:22.552Z,26.48
2023-02-11T12:07:18.184Z,28.65
2023-02-11T12:10:15.055Z,27.73
2023-02-11T12:12:53.978Z,30.77
2023-02-11T12:15:43.595Z,29.67
2023-02-11T12:18:25.245Z,30.35
2023-02-11T12:21:09.829Z,29.77
2023-02-11T12:23:48.357Z,29.98
2023-02-11T12:26:19.682Z,27.50
2023-02-11T12:29:12.636Z,29.45
2023-02-11T12:32:05.219Z,29.27
2023-02-11T12:35:01.345Z,30.05
2023-02-11T12:37:46.623Z,30.58
2023-02-11T12:40:25.167Z,28.80
2023-02-11T12:43:21.535Z,29.98
2023-02-11T12:46:12.974Z,28.88
2023-02-11T12:49:11.481Z,30.10
2023-02-11T12:51:56.907Z,29.48
2023-02-11T12:54:33.086Z,30.90
2023-02-11T12:57:07.665Z,29.88
2023-02-11T13:00:04.926Z,29.08
2023-02-11T13:02:46.855Z,29.80
2023-02-11T13:05:26.797Z,32.55
2023-02-11T13:08:22.325Z,30.73
2023-02-11T13:10:54.212Z,28.65
2023-02-11T13:13:23.650Z,31.35
2023-02-11T13:15:58.438Z,30.25
2023-02-11T13:18:52.375Z,30.27
2023-02-11T13:21:33.389Z,30.65
2023-02-11T13:24:24.318Z,28.93
2023-02-11T13:26:57.283Z,30.80
2023-02-11T13:30:03.040Z,28.23
2023-02-11T13:32:55.829Z,28.63
2023-02-11T13:35:37.346Z,28.42
2023-02-11T13:38:21.419Z,30.15
2023-02-11T13:41:29.419Z,28.00
2023-02-11T13:44:09.545Z,28.48
2023-02-11T13:47:06.996Z,27.88
2023-02-11T13:49:40.682Z,27.98
2023-02-11T13:52:24.850Z,28.88
2023-02-11T13:54:53.770Z,28.83
2023-02-11T13:57:20.724Z,28.08
2023-02-11T14:00:00.390Z,28.48
2023-02-11T14:02:55.068Z,29.13
2023-02-11T14:05:46.865Z,27.37
2023-02-11T14:08:41.329Z,28.40
2023-02-11T14:11:32.707Z,29.55
2023-02-11T14:14:24.148Z,28.08
2023-02-11T14:17:00.282Z,26.73
2023-02-11T14:19:47.087Z,27.25
2023-02-11T14:22:31.691Z,29.98
2023-02-11T14:25:02.608Z,28.25
2023-02-11T14:27:46.058Z,30.13
2023-02-11T14:30:35.331Z,29.48
2023-02-11T14:33:25.029Z,29.25
2023-02-11T14:35:57.454Z,28.08
2023-02-11T14:38:35.692Z,29.83
2023-02-11T14:41:10.704Z,30.35
2023-02-11T14:43:51.387Z,29.88
2023-02-11T14:46:19.774Z,31.15
2023-02-11T14:48:53.185Z,28.75
2023-02-11T14:51:25.701Z,29.90
2023-02-11T14:53:57.778Z,30.15
2023-02-11T14:56:26.675Z,31.50
2023-02-11T14:58:54.728Z,30.23
2023-02-11T15:01:34.906Z,32.03
2023-02-11T15:04:06.535Z,30.60
2023-02-11T15:09:07.213Z,29.88
2023-02-11T15:11:39.808Z,30.87
2023-02-11T15:14:15.042Z,30.58
2023-02-11T15:16:44.640Z,31.58
2023-02-11T15:19:22.263Z,32.55
2023-02-11T15:21:50.749Z,32.70
2023-02-11T15:24:25.562Z,34.03
2023-02-11T15:27:03.885Z,31.50
2023-02-11T15:29:50.513Z,32.67
2023-02-11T15:32:22.021Z,31.80
2023-02-11T15:34:50.971Z,32.75
2023-02-11T15:37:27.030Z,30.42
2023-02-11T15:39:54.468Z,31.20
2023-02-11T15:42:27.740Z,33.33
2023-02-11T15:45:16.235Z,33.92
2023-02-11T15:47:50.286Z,33.63
2023-02-11T15:50:29.896Z,33.55
2023-02-11T15:53:00.059Z,32.78
2023-02-11T15:55:28.394Z,33.05
2023-02-11T15:57:58.313Z,32.92
2023-02-11T16:00:33.584Z,33.00
2023-02-11T16:03:00.553Z,34.33
2023-02-11T16:05:34.372Z,34.80
2023-02-11T16:08:13.296Z,32.60
2023-02-11T16:10:53.468Z,32.38
2023-02-11T16:13:20.515Z,33.65
2023-02-11T16:15:52.519Z,33.42
2023-02-11T16:18:38.823Z,34.03
2023-02-11T16:21:14.445Z,34.58
2023-02-11T16:23:44.467Z,33.95
2023-02-11T16:26:33.492Z,34.58
2023-02-11T16:29:11.535Z,33.40
2023-02-11T16:31:41.593Z,34.17
2023-02-11T16:34:13.526Z,35.05
2023-02-11T16:36:40.304Z,35.42
2023-02-11T16:39:07.297Z,32.60
2023-02-11T16:41:34.056Z,35.47
2023-02-11T16:44:00.734Z,35.35
2023-02-11T16:46:27.722Z,34.85
2023-02-11T16:48:58.835Z,34.88
2023-02-11T16:51:25.650Z,34.08
2023-02-11T16:53:52.649Z,36.38
2023-02-11T16:56:19.393Z,37.05
2023-02-11T16:58:46.090Z,34.53
2023-02-11T17:01:14.163Z,36.47
2023-02-11T17:03:41.406Z,34.70
2023-02-11T17:06:13.432Z,34.42
2023-02-11T17:08:41.288Z,38.15
2023-02-11T17:11:08.174Z,36.50
2023-02-11T17:13:36.298Z,37.17
2023-02-11T17:16:03.030Z,35.95
2023-02-11T17:18:29.859Z,34.38
2023-02-11T17:20:56.513Z,33.70
2023-02-11T17:23:23.274Z,37.17
2023-02-11T17:25:56.315Z,36.58
2023-02-11T17:28:23.104Z,36.10
2023-02-11T17:30:49.927Z,36.05
2023-02-11T17:33:18.766Z,38.30
2023-02-11T17:35:46.101Z,38.95
2023-02-11T17:38:12.833Z,38.63
2023-02-11T17:40:39.829Z,37.95
2023-02-11T17:43:06.516Z,39.10
2023-02-11T17:45:33.417Z,37.72
2023-02-11T17:48:00.254Z,37.03
2023-02-11T17:50:29.208Z,40.88
2023-02-11T17:52:56.902Z,37.63
2023-02-11T17:55:23.695Z,38.78
2023-02-11T17:57:50.342Z,38.00
2023-02-11T18:00:17.392Z,39.78
2023-02-11T18:02:44.165Z,39.50
2023-02-11T18:05:10.876Z,40.33
2023-02-11T18:07:37.652Z,40.70
2023-02-11T18:10:06.743Z,41.47
2023-02-11T18:12:33.412Z,40.85
2023-02-11T18:15:00.187Z,39.45
2023-02-11T18:17:27.053Z,39.38
2023-02-11T18:19:57.534Z,39.40
2023-02-11T18:22:25.838Z,38.95
2023-02-11T18:24:55.730Z,39.20
2023-02-11T18:27:22.954Z,40.08
2023-02-11T18:29:49.686Z,38.92
2023-02-11T18:32:16.560Z,41.08
2023-02-11T18:34:43.591Z,37.95
2023-02-11T18:37:11.467Z,41.92
2023-02-11T18:39:38.183Z,40.15
2023-02-11T18:42:05.033Z,41.63
2023-02-11T18:44:31.704Z,40.50
2023-02-11T18:46:58.482Z,41.35
2023-02-11T18:49:25.401Z,40.50
2023-02-11T18:51:52.168Z,42.22
2023-02-11T18:54:19.146Z,38.63
2023-02-11T18:56:45.848Z,38.67
2023-02-11T18:59:12.711Z,40.15
2023-02-11T19:01:43.087Z,40.92
2023-02-11T19:04:09.835Z,42.10
2023-02-11T19:06:37.686Z,38.67
2023-02-11T19:09:09.713Z,41.78
2023-02-11T19:11:54.151Z,40.60
2023-02-11T19:14:27.670Z,40.85
2023-02-11T19:16:56.999Z,43.00
2023-02-11T19:19:26.770Z,39.38
2023-02-11T19:21:54.622Z,41.65
2023-02-11T19:24:22.250Z,42.00
2023-02-11T19:26:51.010Z,41.67
2023-02-11T19:29:17.964Z,40.30
2023-02-11T19:31:45.548Z,40.92
2023-02-11T19:34:15.370Z,41.20
2023-02-11T19:36:42.056Z,41.35
2023-02-11T19:39:09.961Z,41.17
2023-02-11T19:41:36.818Z,43.72
2023-02-11T19:44:05.274Z,41.83
2023-02-11T19:46:35.337Z,38.67
2023-02-11T19:49:02.876Z,40.70
2023-02-11T19:51:30.925Z,42.20
2023-02-11T19:53:58.853Z,40.78
2023-02-11T19:56:26.085Z,40.22
2023-02-11T19:58:52.705Z,39.42
2023-02-11T20:01:22.158Z,41.50
2023-02-11T20:03:50.495Z,41.10
2023-02-11T20:06:23.339Z,39.47
2023-02-11T20:09:21.572Z,39.28
2023-02-11T20:11:49.376Z,39.40
2023-02-11T20:14:16.179Z,40.47
2023-02-11T20:16:49.095Z,40.50
2023-02-11T20:19:18.726Z,39.75
2023-02-11T20:21:47.865Z,37.95
2023-02-11T20:24:15.917Z,36.05
2023-02-11T20:26:42.706Z,38.15
2023-02-11T20:29:09.653Z,39.00
2023-02-11T20:31:36.723Z,38.35
2023-02-11T20:34:03.570Z,38.60
2023-02-11T20:36:32.519Z,37.38
2023-02-11T20:39:00.134Z,39.75
2023-02-11T20:41:30.811Z,39.40
2023-02-11T20:44:00.025Z,42.10
2023-02-11T20:46:29.298Z,39.05
2023-02-11T20:48:57.545Z,39.10
2023-02-11T20:51:30.791Z,39.78
2023-02-11T20:53:57.844Z,41.17
2023-02-11T20:56:28.628Z,39.00
2023-02-11T20:58:57.583Z,38.87
2023-02-11T21:01:28.694Z,41.60
2023-02-11T21:03:56.953Z,41.90
2023-02-11T21:06:25.941Z,41.75
2023-02-11T21:08:53.687Z,40.90
2023-02-11T21:11:21.139Z,37.88
2023-02-11T21:13:48.582Z,44.33
2023-02-11T21:16:20.312Z,40.22
2023-02-11T21:18:47.868Z,39.38
2023-02-11T21:21:15.072Z,39.65
2023-02-11T21:23:41.749Z,36.95
2023-02-11T21:26:09.463Z,38.65
2023-02-11T21:28:39.094Z,39.95
2023-02-11T21:31:07.637Z,39.60
2023-02-11T21:33:34.650Z,38.75
2023-02-11T21:36:03.640Z,39.63
2023-02-11T21:38:31.162Z,38.05
2023-02-11T21:41:04.225Z,40.53
2023-02-11T21:43:31.528Z,39.90
2023-02-11T21:45:58.205Z,39.17
2023-02-11T21:48:26.519Z,41.58
2023-02-11T21:50:54.054Z,38.03
2023-02-11T21:53:23.662Z,40.20
2023-02-11T21:55:51.198Z,41.42
2023-02-11T21:58:17.966Z,39.58
2023-02-11T22:00:44.741Z,39.13
2023-02-11T22:03:12.300Z,38.25
2023-02-11T22:05:41.044Z,41.17
2023-02-11T22:08:07.891Z,41.67
2023-02-11T22:10:34.572Z,40.17
2023-02-11T22:13:01.268Z,39.45
2023-02-11T22:15:28.132Z,42.45
2023-02-11T22:17:54.783Z,38.97
2023-02-11T22:20:21.436Z,40.20
2023-02-11T22:22:48.276Z,41.53
2023-02-11T22:25:15.393Z,41.67
2023-02-11T22:27:42.044Z,39.50
2023-02-11T22:30:10.051Z,40.60
2023-02-11T22:32:36.766Z,39.30
2023-02-11T22:35:03.457Z,40.65
2023-02-11T22:37:30.137Z,39.17
2023-02-11T22:39:56.763Z,40.10
2023-02-11T22:42:23.438Z,37.65
2023-02-11T22:44:50.142Z,37.72
2023-02-11T22:47:17.091Z,38.78
2023-02-11T22:49:43.723Z,38.40
2023-02-11T22:52:10.377Z,38.58
2023-02-11T22:54:37.100Z,36.75
2023-02-11T22:57:03.830Z,38.53
2023-02-11T22:59:30.522Z,39.10
2023-02-11T23:01:57.314Z,41.13
2023-02-11T23:04:24.030Z,41.17
2023-02-11T23:06:50.807Z,39.40
2023-02-11T23:09:17.482Z,41.38
2023-02-11T23:11:44.465Z,40.30
2023-02-11T23:14:12.024Z,39.10
2023-02-11T23:16:39.354Z,40.88
2023-02-11T23:19:08.820Z,40.22
2023-02-11T23:21:38.520Z,37.85
2023-02-11T23:24:08.437Z,39.20
2023-02-11T23:26:37.478Z,39.70
2023-02-11T23:29:04.317Z,40.38
2023-02-11T23:31:34.452Z,42.72
2023-02-11T23:34:01.402Z,39.60
2023-02-11T23:36:28.641Z,41.28
2023-02-11T23:38:55.417Z,40.85
2023-02-11T23:41:22.349Z,38.90
2023-02-11T23:43:54.044Z,44.08
2023-02-11T23:48:51.645Z,39.70
2023-02-11T23:51:19.427Z,40.70
2023-02-11T23:53:46.401Z,37.60
2023-02-11T23:56:20.286Z,39.78
2023-02-11T23:58:51.663Z,38.95
